Aviation Digital Data Service (ADDS)

Output produced by METARs form (0135 UTC 29 September 2016)
found at http://aviationweather.gov/adds/metars/
 
KISO 282345Z 2900/2924 15005KT P6SM SCT250 
     FM290800 VRB04KT 5SM BR VCSH SCT100 
     FM291000 VRB03KT 3SM BR BKN005 
     FM291200 VRB04KT 3SM BR BKN020 
     FM291300 12005KT P6SM VCSH BKN050 AMD LTD TO CLD VIS AND WIND